createdAt,value
2022-12-23T00:01:52.283Z,21.60
2022-12-23T00:04:22.830Z,21.80
2022-12-23T00:06:53.107Z,22.00
2022-12-23T00:09:23.800Z,22.10
2022-12-23T00:12:12.022Z,22.20
2022-12-23T00:15:00.669Z,22.40
2022-12-23T00:17:31.011Z,22.50
2022-12-23T00:20:01.845Z,22.60
2022-12-23T00:22:50.812Z,22.60
2022-12-23T00:25:22.399Z,22.70
2022-12-23T00:28:05.302Z,22.80
2022-12-23T00:30:36.137Z,22.90
2022-12-23T00:33:06.877Z,23.10
2022-12-23T00:35:37.799Z,23.30
2022-12-23T00:38:08.718Z,23.50
2022-12-23T00:40:57.418Z,23.70
2022-12-23T00:43:28.203Z,24.00
2022-12-23T00:45:58.505Z,24.20
2022-12-23T00:48:46.778Z,24.20
2022-12-23T00:51:18.292Z,24.30
2022-12-23T00:53:48.563Z,24.40
2022-12-23T00:56:19.308Z,24.60
2022-12-23T00:58:49.640Z,24.70
2022-12-23T01:01:38.744Z,24.70
2022-12-23T01:04:27.658Z,24.60
2022-12-23T01:06:58.406Z,24.70
2022-12-23T01:09:29.449Z,24.80
2022-12-23T01:12:00.040Z,24.90
2022-12-23T01:14:31.157Z,25.00
2022-12-23T01:17:02.020Z,25.00
2022-12-23T01:19:33.365Z,25.00
2022-12-23T01:22:04.237Z,25.10
2022-12-23T01:24:35.922Z,25.20
2022-12-23T01:27:06.521Z,25.20
2022-12-23T01:29:36.873Z,25.40
2022-12-23T01:32:07.980Z,25.50
2022-12-23T01:34:38.421Z,25.70
2022-12-23T01:37:08.968Z,25.70
2022-12-23T01:39:41.649Z,25.80
2022-12-23T01:42:38.549Z,25.90
2022-12-23T01:45:17.544Z,26.00
2022-12-23T01:48:04.458Z,26.00
2022-12-23T01:51:04.872Z,26.10
2022-12-23T01:53:41.002Z,26.10
2022-12-23T01:56:14.402Z,26.10
2022-12-23T01:58:50.624Z,26.20
2022-12-23T02:01:38.864Z,26.40
2022-12-23T02:04:12.861Z,26.50
2022-12-23T02:07:03.243Z,26.50
2022-12-23T02:09:39.817Z,26.50
2022-12-23T02:12:28.474Z,26.60
2022-12-23T02:15:44.494Z,26.70
2022-12-23T02:18:36.987Z,26.80
2022-12-23T02:21:34.111Z,27.00
2022-12-23T02:24:49.430Z,27.00
2022-12-23T02:27:54.418Z,27.00
2022-12-23T02:30:50.308Z,26.90
2022-12-23T02:33:33.059Z,26.90
2022-12-23T02:36:29.536Z,26.90
2022-12-23T02:39:13.767Z,27.10
2022-12-23T02:42:29.490Z,27.20
2022-12-23T02:45:22.479Z,27.30
2022-12-23T02:48:01.684Z,27.40
2022-12-23T02:50:35.620Z,27.40
2022-12-23T02:53:14.529Z,27.60
2022-12-23T02:55:48.665Z,27.60
2022-12-23T02:58:23.143Z,27.60
2022-12-23T03:00:54.505Z,27.60
2022-12-23T03:03:26.848Z,27.50
2022-12-23T03:05:59.509Z,27.40
2022-12-23T03:08:37.170Z,27.50
2022-12-23T03:11:49.869Z,27.50
2022-12-23T03:15:10.065Z,27.60
2022-12-23T03:18:13.217Z,27.70
2022-12-23T03:21:20.456Z,27.70
2022-12-23T03:24:00.554Z,27.60
2022-12-23T03:27:02.247Z,27.50
2022-12-23T03:30:05.247Z,27.40
2022-12-23T03:32:40.384Z,27.40
2022-12-23T03:35:13.899Z,27.40
2022-12-23T03:37:48.741Z,27.50
2022-12-23T03:40:45.010Z,27.60
2022-12-23T03:43:24.486Z,27.60
2022-12-23T03:46:01.075Z,27.60
2022-12-23T03:48:40.069Z,27.60
2022-12-23T03:51:20.172Z,27.50
2022-12-23T03:53:58.845Z,27.40
2022-12-23T03:56:37.743Z,27.40
2022-12-23T03:59:21.517Z,27.40
2022-12-23T04:02:12.939Z,27.50
2022-12-23T04:05:10.527Z,27.50
2022-12-23T04:07:43.693Z,27.60
2022-12-23T04:10:15.493Z,27.50
2022-12-23T04:13:04.887Z,27.40
2022-12-23T04:15:54.310Z,27.40
2022-12-23T04:18:25.212Z,27.10
2022-12-23T04:20:55.966Z,26.90
2022-12-23T04:23:26.823Z,26.90
2022-12-23T04:25:57.068Z,26.80
2022-12-23T04:28:27.398Z,26.70
2022-12-23T04:30:57.836Z,26.70
2022-12-23T04:33:28.306Z,26.80
2022-12-23T04:35:58.562Z,26.80
2022-12-23T04:38:35.159Z,27.00
2022-12-23T04:41:05.922Z,27.10
2022-12-23T04:43:37.834Z,27.20
2022-12-23T04:46:08.859Z,27.30
2022-12-23T04:48:39.914Z,27.20
2022-12-23T04:51:11.465Z,27.10
2022-12-23T04:53:42.607Z,27.10
2022-12-23T04:56:15.252Z,27.20
2022-12-23T04:58:45.859Z,27.10
2022-12-23T05:01:16.332Z,27.00
2022-12-23T05:03:47.238Z,26.80
2022-12-23T05:06:17.741Z,26.70
2022-12-23T05:08:48.259Z,26.60
2022-12-23T05:11:18.923Z,26.50
2022-12-23T05:13:49.754Z,26.40
2022-12-23T05:16:20.558Z,26.50
2022-12-23T05:18:51.541Z,26.50
2022-12-23T05:21:22.529Z,26.60
2022-12-23T05:23:53.394Z,26.70
2022-12-23T05:26:24.095Z,26.60
2022-12-23T05:28:54.391Z,26.50
2022-12-23T05:31:24.716Z,26.50
2022-12-23T05:33:56.647Z,26.40
2022-12-23T05:36:29.140Z,26.30
2022-12-23T05:39:00.025Z,26.30
2022-12-23T05:41:31.930Z,26.30
2022-12-23T05:44:02.918Z,26.20
2022-12-23T05:46:33.737Z,26.20
2022-12-23T05:49:04.596Z,26.10
2022-12-23T05:51:35.315Z,26.00
2022-12-23T05:54:07.865Z,26.00
2022-12-23T05:56:38.519Z,26.00
2022-12-23T05:59:08.759Z,26.10
2022-12-23T06:01:39.189Z,26.20
2022-12-23T06:04:10.289Z,26.20
2022-12-23T06:06:41.058Z,26.30
2022-12-23T06:09:13.713Z,26.40
2022-12-23T06:11:44.351Z,26.40
2022-12-23T06:14:15.419Z,26.40
2022-12-23T06:16:45.669Z,26.40
2022-12-23T06:19:16.361Z,26.30
2022-12-23T06:21:46.969Z,26.30
2022-12-23T06:24:17.505Z,26.30
2022-12-23T06:26:51.898Z,26.30
2022-12-23T06:29:25.778Z,26.30
2022-12-23T06:31:56.498Z,26.30
2022-12-23T06:34:26.911Z,26.40
2022-12-23T06:36:57.230Z,26.50
2022-12-23T06:39:27.500Z,26.40
2022-12-23T06:42:16.197Z,26.40
2022-12-23T06:45:05.261Z,26.20
2022-12-23T06:47:35.580Z,26.10
2022-12-23T06:50:07.670Z,26.00
2022-12-23T06:52:38.104Z,25.90
2022-12-23T06:55:08.812Z,25.90
2022-12-23T06:57:39.245Z,25.90
2022-12-23T07:00:11.909Z,26.00
2022-12-23T07:02:42.583Z,26.00
2022-12-23T07:05:13.520Z,26.00
2022-12-23T07:07:44.565Z,26.00
2022-12-23T07:10:15.735Z,26.00
2022-12-23T07:13:05.477Z,25.90
2022-12-23T07:15:54.356Z,25.70
2022-12-23T07:18:28.213Z,25.60
2022-12-23T07:21:03.304Z,25.50
2022-12-23T07:23:33.826Z,25.50
2022-12-23T07:26:04.036Z,25.40
2022-12-23T07:28:34.753Z,25.40
2022-12-23T07:31:09.058Z,25.30
2022-12-23T07:33:39.768Z,25.30
2022-12-23T07:36:11.102Z,25.10
2022-12-23T07:38:42.324Z,25.10
2022-12-23T07:41:31.591Z,25.00
2022-12-23T07:44:20.819Z,25.00
2022-12-23T07:46:51.161Z,25.10
2022-12-23T07:49:21.908Z,25.00
2022-12-23T07:51:52.180Z,25.00
2022-12-23T07:54:22.430Z,25.00
2022-12-23T07:56:53.386Z,24.90
2022-12-23T07:59:24.430Z,24.90
2022-12-23T08:01:56.470Z,24.90
2022-12-23T08:04:27.781Z,24.80
2022-12-23T08:06:58.835Z,24.70
2022-12-23T08:09:29.772Z,24.70
2022-12-23T08:12:00.468Z,24.70
2022-12-23T08:14:32.454Z,24.60
2022-12-23T08:17:03.168Z,24.60
2022-12-23T08:19:33.515Z,24.50
2022-12-23T08:22:04.096Z,24.50
2022-12-23T08:24:34.862Z,24.50
2022-12-23T08:27:05.554Z,24.50
2022-12-23T08:29:38.789Z,24.50
2022-12-23T08:32:09.843Z,24.40
2022-12-23T08:34:40.401Z,24.40
2022-12-23T08:37:11.157Z,24.30
2022-12-23T08:39:41.657Z,24.20
2022-12-23T08:42:11.989Z,24.20
2022-12-23T08:44:43.940Z,24.10
2022-12-23T08:47:14.990Z,24.00
2022-12-23T08:49:45.686Z,23.90
2022-12-23T08:52:16.407Z,23.80
2022-12-23T08:54:46.869Z,23.70
2022-12-23T08:57:17.167Z,23.60
2022-12-23T08:59:48.993Z,23.50
2022-12-23T09:02:19.488Z,23.50
2022-12-23T09:04:50.218Z,23.40
2022-12-23T09:07:20.584Z,23.30
2022-12-23T09:09:50.909Z,23.20
2022-12-23T09:12:40.063Z,23.10
2022-12-23T09:15:29.051Z,23.00
2022-12-23T09:17:59.390Z,22.80
2022-12-23T09:20:29.728Z,22.70
2022-12-23T09:23:02.253Z,22.70
2022-12-23T09:25:32.661Z,22.50
2022-12-23T09:28:03.659Z,22.50
2022-12-23T09:30:33.928Z,22.40
2022-12-23T09:33:04.220Z,22.30
2022-12-23T09:35:35.054Z,22.20
2022-12-23T09:38:05.709Z,22.10
2022-12-23T09:40:40.091Z,22.00
2022-12-23T09:43:28.709Z,21.90
2022-12-23T09:46:11.189Z,21.80
2022-12-23T09:48:49.996Z,21.60
2022-12-23T09:51:25.318Z,21.50
2022-12-23T09:54:01.502Z,21.40
2022-12-23T09:56:43.718Z,21.30
2022-12-23T09:59:43.558Z,21.20
2022-12-23T10:02:29.479Z,21.10
2022-12-23T10:05:25.170Z,21.00
2022-12-23T10:08:01.167Z,20.80
2022-12-23T10:10:46.480Z,20.80
2022-12-23T10:13:28.536Z,20.70
2022-12-23T10:16:05.476Z,20.60
2022-12-23T10:18:55.234Z,20.60
2022-12-23T10:21:34.743Z,20.60
2022-12-23T10:24:15.916Z,20.70
2022-12-23T10:26:57.147Z,20.70
2022-12-23T10:29:32.949Z,20.60
2022-12-23T10:32:06.878Z,20.60
2022-12-23T10:34:56.149Z,20.50
2022-12-23T10:37:51.332Z,20.50
2022-12-23T10:41:05.379Z,20.40
2022-12-23T10:44:01.604Z,20.40
2022-12-23T10:46:40.923Z,20.40
2022-12-23T10:49:29.457Z,20.40
2022-12-23T10:52:12.471Z,20.30
2022-12-23T10:54:46.303Z,20.30
2022-12-23T10:57:20.265Z,20.20
2022-12-23T10:59:50.563Z,20.20
2022-12-23T11:02:36.372Z,20.10
2022-12-23T11:05:11.806Z,20.00
2022-12-23T11:07:44.577Z,20.00
2022-12-23T11:10:30.203Z,20.00
2022-12-23T11:13:38.763Z,19.90
2022-12-23T11:16:47.164Z,19.90
2022-12-23T11:19:19.130Z,19.90
2022-12-23T11:22:02.937Z,19.90
2022-12-23T11:24:41.311Z,19.90
2022-12-23T11:27:18.825Z,19.90
2022-12-23T11:29:55.018Z,19.80
2022-12-23T11:32:30.582Z,19.80
2022-12-23T11:35:01.439Z,19.80
2022-12-23T11:37:45.647Z,19.80
2022-12-23T11:40:25.772Z,19.70
2022-12-23T11:43:03.040Z,19.70
2022-12-23T11:45:37.953Z,19.70
2022-12-23T11:48:28.710Z,19.70
2022-12-23T11:51:04.243Z,19.60
2022-12-23T11:53:38.689Z,19.60
2022-12-23T11:56:15.972Z,19.50
2022-12-23T11:58:54.113Z,19.50
2022-12-23T12:01:28.546Z,19.30
2022-12-23T12:04:03.023Z,19.30
2022-12-23T12:06:35.366Z,19.20
2022-12-23T12:09:09.003Z,19.10
2022-12-23T12:11:47.041Z,19.10
2022-12-23T12:14:50.671Z,19.00
2022-12-23T12:17:47.507Z,18.90
2022-12-23T12:20:50.525Z,18.90
2022-12-23T12:23:28.790Z,18.80
2022-12-23T12:26:31.041Z,18.80
2022-12-23T12:29:11.735Z,18.80
2022-12-23T12:31:55.041Z,18.70
2022-12-23T12:34:25.728Z,18.70
2022-12-23T12:37:23.612Z,18.70
2022-12-23T12:40:11.627Z,18.60
2022-12-23T12:42:42.753Z,18.60
2022-12-23T12:45:37.605Z,18.60
2022-12-23T12:48:28.925Z,18.60
2022-12-23T12:51:05.875Z,18.60
2022-12-23T12:53:38.234Z,18.50
2022-12-23T12:56:31.151Z,18.60
2022-12-23T12:59:02.067Z,18.50
2022-12-23T13:01:48.638Z,18.50
2022-12-23T13:04:33.211Z,18.40
2022-12-23T13:07:10.974Z,18.40
2022-12-23T13:09:44.681Z,18.30
2022-12-23T13:12:33.432Z,18.30
2022-12-23T13:15:12.623Z,18.30
2022-12-23T13:18:03.916Z,18.30
2022-12-23T13:20:43.760Z,18.30
2022-12-23T13:23:43.404Z,18.20
2022-12-23T13:26:28.752Z,18.20
2022-12-23T13:29:12.284Z,18.20
2022-12-23T13:31:59.362Z,18.20
2022-12-23T13:34:39.392Z,18.20
2022-12-23T13:37:34.281Z,18.10
2022-12-23T13:40:08.084Z,18.10
2022-12-23T13:42:48.159Z,18.00
2022-12-23T13:45:21.760Z,18.00
2022-12-23T13:48:08.189Z,17.90
2022-12-23T13:50:58.977Z,17.80
2022-12-23T13:53:51.389Z,17.70
2022-12-23T13:56:29.257Z,17.60
2022-12-23T13:59:02.360Z,17.50
2022-12-23T14:01:50.130Z,17.50
2022-12-23T14:04:33.276Z,17.40
2022-12-23T14:07:07.794Z,17.30
2022-12-23T14:09:40.928Z,17.30
2022-12-23T14:12:32.061Z,17.20
2022-12-23T14:15:18.756Z,17.10
2022-12-23T14:18:04.547Z,17.10
2022-12-23T14:20:53.211Z,17.10
2022-12-23T14:23:49.863Z,17.10
2022-12-23T14:27:05.294Z,17.00
2022-12-23T14:30:19.603Z,17.00
2022-12-23T14:32:55.333Z,16.90
2022-12-23T14:35:42.401Z,16.90
2022-12-23T14:38:20.632Z,16.80
2022-12-23T14:41:02.461Z,16.80
2022-12-23T14:43:50.794Z,16.70
2022-12-23T14:46:42.714Z,16.70
2022-12-23T14:49:40.342Z,16.60
2022-12-23T14:52:44.745Z,16.60
2022-12-23T14:55:45.393Z,16.50
2022-12-23T14:58:22.557Z,16.50
2022-12-23T15:01:13.104Z,16.40
2022-12-23T15:03:53.300Z,16.40
2022-12-23T15:06:37.270Z,16.40
2022-12-23T15:09:09.698Z,16.30
2022-12-23T15:11:43.341Z,16.30
2022-12-23T15:14:30.434Z,16.20
2022-12-23T15:17:00.853Z,16.20
2022-12-23T15:19:32.044Z,16.20
2022-12-23T15:22:20.730Z,16.20
2022-12-23T15:24:54.535Z,16.10
2022-12-23T15:27:28.403Z,16.00
2022-12-23T15:30:00.603Z,16.00
2022-12-23T15:32:32.775Z,15.90
2022-12-23T15:35:07.989Z,15.90
2022-12-23T15:37:38.691Z,15.90
2022-12-23T15:40:13.529Z,15.80
2022-12-23T15:42:51.188Z,15.80
2022-12-23T15:45:42.022Z,15.80
2022-12-23T15:48:36.805Z,15.70
2022-12-23T15:51:49.574Z,15.70
2022-12-23T15:54:34.038Z,15.60
2022-12-23T15:57:06.220Z,15.50
2022-12-23T15:59:41.687Z,15.50
2022-12-23T16:05:11.864Z,15.50
2022-12-23T16:07:45.086Z,15.50
2022-12-23T16:10:23.903Z,15.40
2022-12-23T16:12:55.418Z,15.30
2022-12-23T16:15:34.769Z,15.30
2022-12-23T16:18:15.730Z,15.20
2022-12-23T16:20:59.064Z,15.20
2022-12-23T16:23:33.229Z,15.20
2022-12-23T16:26:05.467Z,15.20
2022-12-23T16:28:51.599Z,15.20
2022-12-23T16:31:23.612Z,15.10
2022-12-23T16:33:58.603Z,15.10
2022-12-23T16:36:29.457Z,15.10
2022-12-23T16:39:11.761Z,15.00
2022-12-23T16:41:42.066Z,15.00
2022-12-23T16:44:12.573Z,14.90
2022-12-23T16:46:46.863Z,14.90
2022-12-23T16:49:32.947Z,14.90
2022-12-23T16:52:06.188Z,14.80
2022-12-23T16:54:45.089Z,14.80
2022-12-23T16:57:15.359Z,14.70
2022-12-23T16:59:46.223Z,14.70
2022-12-23T17:02:24.200Z,14.70
2022-12-23T17:04:55.519Z,14.70
2022-12-23T17:07:27.066Z,14.70
2022-12-23T17:09:57.549Z,14.70
2022-12-23T17:12:28.277Z,14.70
2022-12-23T17:14:59.285Z,14.60
2022-12-23T17:17:30.220Z,14.60
2022-12-23T17:20:01.410Z,14.50
2022-12-23T17:22:32.643Z,14.50
2022-12-23T17:25:02.978Z,14.50
2022-12-23T17:27:33.243Z,14.50
2022-12-23T17:30:03.531Z,14.50
2022-12-23T17:32:34.477Z,14.50
2022-12-23T17:35:05.226Z,14.50
2022-12-23T17:37:39.939Z,14.50
2022-12-23T17:40:15.234Z,14.40
2022-12-23T17:42:47.359Z,14.40
2022-12-23T17:45:27.059Z,14.30
2022-12-23T17:47:59.565Z,14.30
2022-12-23T17:50:30.818Z,14.30
2022-12-23T17:53:01.768Z,14.30
2022-12-23T17:55:32.942Z,14.20
2022-12-23T17:58:03.774Z,14.20
2022-12-23T18:00:34.773Z,14.20
2022-12-23T18:03:33.018Z,14.20
2022-12-23T18:06:05.911Z,14.20
2022-12-23T18:08:36.671Z,14.10
2022-12-23T18:11:08.716Z,14.10
2022-12-23T18:13:40.822Z,14.10
2022-12-23T18:16:15.412Z,14.00
2022-12-23T18:18:47.062Z,14.00
2022-12-23T18:21:24.482Z,13.90
2022-12-23T18:23:57.921Z,13.90
2022-12-23T18:26:28.688Z,13.90
2022-12-23T18:28:58.926Z,13.90
2022-12-23T18:31:29.306Z,13.90
2022-12-23T18:34:03.003Z,13.90
2022-12-23T18:36:37.129Z,13.90
2022-12-23T18:39:08.092Z,13.90
2022-12-23T18:41:38.839Z,13.90
2022-12-23T18:44:12.998Z,13.90
2022-12-23T18:46:43.660Z,13.80
2022-12-23T18:49:14.098Z,13.90
2022-12-23T18:51:44.455Z,13.80
2022-12-23T18:54:20.314Z,13.90
2022-12-23T18:56:50.974Z,13.80
2022-12-23T18:59:29.963Z,13.80
2022-12-23T19:02:01.925Z,13.80
2022-12-23T19:04:34.559Z,13.80
2022-12-23T19:07:08.967Z,13.80
2022-12-23T19:09:39.712Z,13.80
2022-12-23T19:12:11.551Z,13.80
2022-12-23T19:14:43.277Z,13.80
2022-12-23T19:17:13.640Z,13.80
2022-12-23T19:19:45.162Z,13.80
2022-12-23T19:22:15.458Z,13.80
2022-12-23T19:25:04.417Z,13.80
2022-12-23T19:27:37.587Z,13.80
2022-12-23T19:30:10.263Z,13.80
2022-12-23T19:32:42.276Z,13.80
2022-12-23T19:35:16.073Z,13.80
2022-12-23T19:37:46.300Z,13.80
2022-12-23T19:40:16.677Z,13.90
2022-12-23T19:42:47.380Z,13.90
2022-12-23T19:45:19.316Z,14.00
2022-12-23T19:47:50.153Z,14.00
2022-12-23T19:50:22.883Z,14.10
2022-12-23T19:52:53.724Z,14.10
2022-12-23T19:55:25.855Z,14.20
2022-12-23T19:57:56.551Z,14.30
2022-12-23T20:00:29.725Z,14.30
2022-12-23T20:03:00.453Z,14.40
2022-12-23T20:05:34.265Z,14.50
2022-12-23T20:08:05.087Z,14.60
2022-12-23T20:10:36.976Z,14.70
2022-12-23T20:13:08.676Z,14.70
2022-12-23T20:15:41.314Z,14.80
2022-12-23T20:18:12.174Z,14.80
2022-12-23T20:20:45.759Z,14.90
2022-12-23T20:23:16.094Z,14.90
2022-12-23T20:25:46.834Z,15.00
2022-12-23T20:28:17.173Z,15.10
2022-12-23T20:30:50.163Z,15.20
2022-12-23T20:33:20.501Z,15.30
2022-12-23T20:35:50.999Z,15.30
2022-12-23T20:38:26.390Z,15.40
2022-12-23T20:40:57.063Z,15.50
2022-12-23T20:43:27.347Z,15.60
2022-12-23T20:45:57.728Z,15.70
2022-12-23T20:48:33.514Z,15.80
2022-12-23T20:51:15.970Z,16.00
2022-12-23T20:53:46.950Z,16.30
2022-12-23T20:56:20.339Z,16.50
2022-12-23T20:58:56.775Z,16.70
2022-12-23T21:01:39.587Z,17.00
2022-12-23T21:04:17.428Z,17.20
2022-12-23T21:06:48.702Z,17.40
2022-12-23T21:09:23.435Z,17.60
2022-12-23T21:11:55.160Z,17.70
2022-12-23T21:14:25.416Z,17.80
2022-12-23T21:16:57.397Z,17.80
2022-12-23T21:19:28.980Z,17.90
2022-12-23T21:22:00.620Z,18.00
2022-12-23T21:24:31.390Z,18.10
2022-12-23T21:27:02.221Z,18.20
2022-12-23T21:29:33.678Z,18.30
2022-12-23T21:32:04.679Z,18.40
2022-12-23T21:34:35.016Z,18.50
2022-12-23T21:37:05.325Z,18.70
2022-12-23T21:39:35.840Z,19.00
2022-12-23T21:42:06.211Z,19.20
2022-12-23T21:44:36.587Z,19.50
2022-12-23T21:47:06.974Z,19.80
2022-12-23T21:49:37.519Z,20.20
2022-12-23T21:52:07.914Z,20.70
2022-12-23T21:54:38.713Z,21.10
2022-12-23T21:57:09.362Z,21.50
2022-12-23T21:59:39.802Z,21.80
2022-12-23T22:02:10.077Z,22.10
2022-12-23T22:04:40.350Z,22.50
2022-12-23T22:07:11.415Z,22.70
2022-12-23T22:09:42.125Z,22.80
2022-12-23T22:12:12.819Z,23.00
2022-12-23T22:14:43.081Z,23.20
2022-12-23T22:17:14.644Z,23.30
2022-12-23T22:19:44.925Z,23.40
2022-12-23T22:22:15.163Z,23.70
2022-12-23T22:24:45.607Z,23.90
2022-12-23T22:27:16.788Z,24.10
2022-12-23T22:29:47.268Z,24.20
2022-12-23T22:32:17.787Z,24.20
2022-12-23T22:34:48.476Z,24.30
2022-12-23T22:37:19.350Z,24.50
2022-12-23T22:39:49.856Z,24.50
2022-12-23T22:42:20.733Z,24.60
2022-12-23T22:44:51.682Z,24.70
2022-12-23T22:47:22.179Z,24.80
2022-12-23T22:49:52.991Z,24.80
2022-12-23T22:52:23.381Z,24.90
2022-12-23T22:54:53.760Z,24.80
2022-12-23T22:57:24.036Z,24.80
2022-12-23T22:59:54.408Z,24.90
2022-12-23T23:02:25.469Z,24.90
2022-12-23T23:04:55.818Z,25.00
2022-12-23T23:07:26.574Z,25.00
2022-12-23T23:09:57.616Z,25.00
2022-12-23T23:12:28.586Z,25.00
2022-12-23T23:14:59.675Z,25.20
2022-12-23T23:17:31.440Z,25.30
2022-12-23T23:20:01.881Z,25.40
2022-12-23T23:22:32.212Z,25.50
2022-12-23T23:25:03.150Z,25.70
2022-12-23T23:27:35.838Z,25.70
2022-12-23T23:30:08.669Z,25.90
2022-12-23T23:32:40.613Z,25.90
2022-12-23T23:35:12.938Z,26.00
2022-12-23T23:37:45.264Z,26.10
2022-12-23T23:40:16.278Z,26.30
2022-12-23T23:42:46.950Z,26.40
2022-12-23T23:45:17.461Z,26.40
2022-12-23T23:47:47.705Z,26.50
2022-12-23T23:50:18.222Z,26.50
2022-12-23T23:52:48.551Z,26.70
2022-12-23T23:55:19.699Z,26.80
2022-12-23T23:57:50.113Z,26.90
